Current Weather

Kununurra

Kununurra, Australia (YPKU)

Report from: Sunday, February 5, 2023 2:00 PM AEDT
Current time: Sunday, February 5, 2023 2:39 PM AEDT

Nearby weather
Weather history
Weather forecast

Temperature33.0°C (91.4°F)
Heat index36.1°C (97.1°F)
Dew point21.0°C (69.8°F)
Winds 9 kts (4.6 m/s, 10.4 mph) East (90°)
Visibility6.2 mi. (10 km)
Clouds Scattered clouds 5,400 ft. (1,646 m)
Ceiling: Broken clouds 8,200 ft. (2,499 m)
Altimeter29.71 in.Hg (1006 mB)
Relative humidity49 %
Density altitude2,629 ft. (801 m)
Remarks Fully automated report
Flight conditions Visual Meteorological Conditions
Raw dataYPKU 050300Z AUTO 09009KT 9999 // SCT054 BKN082 33/21 Q1006
An unhandled exception has occurred. See browser dev tools for details. Reload 🗙